createdAt,value
2018-11-02T00:02:07.389Z,4.50
2018-11-02T00:04:36.534Z,5.08
2018-11-02T00:07:05.673Z,5.13
2018-11-02T00:09:34.865Z,5.13
2018-11-02T00:12:03.999Z,5.47
2018-11-02T00:14:33.159Z,5.10
2018-11-02T00:17:02.294Z,6.10
2018-11-02T00:19:33.328Z,6.70
2018-11-02T00:22:04.073Z,6.50
2018-11-02T00:24:33.282Z,5.20
2018-11-02T00:27:02.682Z,5.93
2018-11-02T00:29:32.919Z,6.00
2018-11-02T00:32:02.205Z,6.80
2018-11-02T00:34:31.245Z,6.40
2018-11-02T00:37:00.401Z,6.57
2018-11-02T00:39:29.508Z,5.30
2018-11-02T00:41:58.658Z,6.47
2018-11-02T00:44:27.823Z,6.70
2018-11-02T00:46:56.958Z,6.30
2018-11-02T00:49:26.099Z,7.30
2018-11-02T00:51:55.609Z,7.00
2018-11-02T00:54:24.779Z,6.60
2018-11-02T00:56:53.906Z,5.70
2018-11-02T00:59:23.087Z,6.43
2018-11-02T01:01:52.218Z,7.23
2018-11-02T01:04:21.413Z,6.20
2018-11-02T01:06:50.588Z,6.40
2018-11-02T01:09:19.742Z,8.00
2018-11-02T01:11:48.968Z,7.10
2018-11-02T01:14:18.101Z,6.85
2018-11-02T01:16:47.312Z,7.27
2018-11-02T01:19:16.406Z,6.13
2018-11-02T01:21:45.547Z,7.47
2018-11-02T01:24:14.870Z,7.23
2018-11-02T01:26:44.022Z,6.57
2018-11-02T01:29:13.189Z,7.27
2018-11-02T01:31:42.369Z,6.43
2018-11-02T01:34:11.490Z,6.80
2018-11-02T01:36:40.612Z,7.40
2018-11-02T01:39:10.097Z,8.43
2018-11-02T01:41:39.261Z,7.57
2018-11-02T01:44:08.449Z,7.13
2018-11-02T01:46:37.620Z,7.20
2018-11-02T01:49:07.075Z,8.47
2018-11-02T01:51:36.241Z,8.17
2018-11-02T01:54:05.476Z,6.70
2018-11-02T01:56:34.640Z,7.87
2018-11-02T01:59:03.818Z,7.07
2018-11-02T02:01:32.968Z,8.10
2018-11-02T02:04:02.222Z,8.83
2018-11-02T02:06:31.381Z,7.90
2018-11-02T02:09:00.543Z,7.13
2018-11-02T02:11:29.662Z,8.17
2018-11-02T02:13:58.835Z,7.60
2018-11-02T02:16:27.983Z,7.73
2018-11-02T02:18:57.132Z,8.80
2018-11-02T02:21:26.403Z,7.85
2018-11-02T02:23:55.558Z,7.43
2018-11-02T02:26:24.675Z,9.13
2018-11-02T02:28:53.845Z,7.17
2018-11-02T02:31:23.019Z,8.40
2018-11-02T02:33:52.137Z,9.30
2018-11-02T02:36:21.278Z,8.07
2018-11-02T02:38:50.413Z,8.70
2018-11-02T02:41:19.532Z,8.60
2018-11-02T02:43:48.679Z,8.83
2018-11-02T02:46:17.937Z,9.03
2018-11-02T02:48:47.134Z,8.80
2018-11-02T02:51:16.276Z,9.40
2018-11-02T02:53:45.426Z,10.00
2018-11-02T02:56:14.558Z,9.77
2018-11-02T02:58:43.705Z,10.03
2018-11-02T03:01:12.856Z,8.90
2018-11-02T03:03:42.077Z,9.83
2018-11-02T03:06:11.289Z,9.73
2018-11-02T03:08:40.447Z,10.00
2018-11-02T03:11:10.037Z,9.60
2018-11-02T03:13:38.938Z,8.87
2018-11-02T03:16:08.091Z,10.00
2018-11-02T03:18:37.305Z,10.20
2018-11-02T03:21:06.590Z,9.10
2018-11-02T03:23:35.726Z,9.23
2018-11-02T03:26:05.080Z,10.47
2018-11-02T03:28:34.225Z,10.83
2018-11-02T03:31:03.372Z,10.00
2018-11-02T03:33:32.588Z,10.13
2018-11-02T03:36:01.739Z,10.50
2018-11-02T03:38:30.873Z,10.07
2018-11-02T03:41:00.020Z,11.20
2018-11-02T03:43:29.176Z,10.70
2018-11-02T03:45:58.426Z,10.90
2018-11-02T03:48:27.620Z,9.93
2018-11-02T03:50:57.280Z,9.73
2018-11-02T03:53:26.432Z,10.83
2018-11-02T03:55:55.561Z,10.37
2018-11-02T03:58:24.709Z,10.87
2018-11-02T04:00:55.020Z,11.07
2018-11-02T04:03:24.129Z,11.40
2018-11-02T04:05:53.260Z,11.35
2018-11-02T04:08:22.393Z,10.63
2018-11-02T04:10:51.546Z,11.50
2018-11-02T04:13:20.798Z,10.30
2018-11-02T04:15:49.929Z,11.33
2018-11-02T04:18:19.076Z,10.90
2018-11-02T04:20:48.764Z,11.83
2018-11-02T04:23:17.903Z,11.60
2018-11-02T04:25:47.000Z,11.33
2018-11-02T04:28:16.174Z,11.43
2018-11-02T04:30:45.292Z,11.78
2018-11-02T04:33:14.400Z,11.67
2018-11-02T04:35:43.558Z,13.10
2018-11-02T04:38:12.727Z,11.93
2018-11-02T04:40:41.886Z,11.57
2018-11-02T04:43:11.717Z,12.73
2018-11-02T04:45:41.522Z,13.13
2018-11-02T04:48:11.978Z,10.97
2018-11-02T04:50:41.755Z,11.30
2018-11-02T04:53:11.042Z,11.83
2018-11-02T04:55:40.173Z,12.30
2018-11-02T04:58:09.349Z,10.50
2018-11-02T05:00:38.503Z,10.20
2018-11-02T05:03:07.858Z,11.50
2018-11-02T05:05:36.977Z,10.97
2018-11-02T05:08:06.145Z,10.33
2018-11-02T05:10:35.818Z,10.40
2018-11-02T05:13:05.009Z,11.47
2018-11-02T05:15:34.130Z,11.57
2018-11-02T05:18:03.273Z,11.07
2018-11-02T05:20:32.415Z,11.73
2018-11-02T05:23:01.625Z,12.37
2018-11-02T05:25:30.752Z,11.63
2018-11-02T05:27:59.870Z,12.10
2018-11-02T05:30:28.994Z,11.90
2018-11-02T05:32:58.162Z,11.77
2018-11-02T05:35:27.328Z,12.47
2018-11-02T05:37:56.486Z,12.50
2018-11-02T05:40:25.628Z,12.40
2018-11-02T05:42:54.779Z,12.10
2018-11-02T05:45:23.905Z,13.55
2018-11-02T05:47:53.056Z,12.10
2018-11-02T05:50:22.356Z,12.20
2018-11-02T05:52:51.481Z,11.30
2018-11-02T05:55:20.610Z,13.07
2018-11-02T05:57:49.735Z,13.30
2018-11-02T06:00:19.033Z,12.80
2018-11-02T06:02:48.206Z,13.10
2018-11-02T06:05:17.370Z,14.43
2018-11-02T06:07:46.601Z,13.40
2018-11-02T06:10:15.735Z,13.53
2018-11-02T06:12:44.869Z,15.30
2018-11-02T06:15:14.233Z,14.10
2018-11-02T06:17:43.390Z,13.00
2018-11-02T06:20:12.604Z,13.00
2018-11-02T06:22:42.194Z,13.10
2018-11-02T06:25:11.773Z,12.80
2018-11-02T06:27:40.901Z,13.57
2018-11-02T06:30:10.589Z,11.73
2018-11-02T06:32:39.824Z,12.60
2018-11-02T06:35:09.499Z,12.17
2018-11-02T06:37:38.598Z,13.00
2018-11-02T06:40:08.014Z,11.93
2018-11-02T06:42:37.315Z,11.33
2018-11-02T06:45:08.309Z,12.67
2018-11-02T06:47:37.277Z,11.90
2018-11-02T06:50:06.589Z,12.98
2018-11-02T06:52:35.920Z,12.30
2018-11-02T06:55:05.721Z,12.43
2018-11-02T06:57:34.894Z,13.40
2018-11-02T07:00:05.073Z,12.40
2018-11-02T07:02:33.981Z,14.30
2018-11-02T07:05:03.111Z,13.73
2018-11-02T07:07:32.398Z,13.27
2018-11-02T07:10:01.498Z,12.33
2018-11-02T07:12:30.656Z,12.37
2018-11-02T07:14:59.783Z,13.60
2018-11-02T07:17:28.936Z,12.70
2018-11-02T07:19:58.185Z,12.53
2018-11-02T07:22:27.505Z,13.62
2018-11-02T07:24:56.760Z,14.25
2018-11-02T07:27:26.219Z,14.70
2018-11-02T07:29:56.199Z,14.83
2018-11-02T07:32:25.403Z,17.23
2018-11-02T07:34:54.549Z,15.30
2018-11-02T07:37:23.673Z,12.93
2018-11-02T07:39:52.841Z,12.37
2018-11-02T07:42:22.117Z,12.20
2018-11-02T07:44:51.270Z,12.67
2018-11-02T07:47:20.429Z,13.08
2018-11-02T07:49:49.577Z,13.50
2018-11-02T07:52:18.693Z,12.60
2018-11-02T07:54:47.903Z,12.57
2018-11-02T07:57:17.142Z,13.83
2018-11-02T07:59:46.428Z,14.20
2018-11-02T08:02:15.664Z,13.23
2018-11-02T08:04:44.805Z,12.73
2018-11-02T08:07:14.000Z,13.63
2018-11-02T08:09:43.870Z,13.47
2018-11-02T08:12:13.037Z,13.40
2018-11-02T08:14:42.353Z,13.40
2018-11-02T08:17:11.549Z,13.63
2018-11-02T08:19:40.705Z,14.20
2018-11-02T08:22:09.884Z,14.10
2018-11-02T08:24:39.173Z,13.03
2018-11-02T08:27:08.468Z,12.50
2018-11-02T08:29:37.717Z,13.33
2018-11-02T08:32:07.006Z,12.78
2018-11-02T08:34:36.184Z,12.70
2018-11-02T08:37:05.540Z,11.77
2018-11-02T08:39:34.684Z,12.90
2018-11-02T08:42:04.027Z,13.47
2018-11-02T08:44:33.247Z,12.30
2018-11-02T08:47:02.470Z,12.83
2018-11-02T08:49:31.783Z,13.07
2018-11-02T08:52:01.142Z,12.70
2018-11-02T08:54:30.365Z,13.10
2018-11-02T08:56:59.628Z,11.57
2018-11-02T08:59:29.025Z,13.03
2018-11-02T09:01:58.166Z,13.20
2018-11-02T09:04:27.480Z,12.50
2018-11-02T09:06:56.618Z,12.17
2018-11-02T09:09:26.024Z,12.63
2018-11-02T09:11:55.236Z,12.20
2018-11-02T09:14:24.331Z,11.87
2018-11-02T09:16:53.564Z,12.87
2018-11-02T09:19:22.757Z,12.85
2018-11-02T09:21:52.187Z,12.90
2018-11-02T09:24:21.341Z,12.93
2018-11-02T09:26:50.666Z,11.60
2018-11-02T09:29:19.953Z,14.03
2018-11-02T09:31:49.232Z,13.63
2018-11-02T09:34:18.530Z,12.20
2018-11-02T09:36:47.758Z,12.97
2018-11-02T09:39:16.951Z,12.25
2018-11-02T09:41:46.102Z,12.80
2018-11-02T09:44:15.243Z,14.28
2018-11-02T09:46:44.509Z,13.03
2018-11-02T09:49:13.714Z,12.97
2018-11-02T09:51:43.039Z,13.38
2018-11-02T09:54:12.149Z,12.70
2018-11-02T09:56:41.311Z,12.70
2018-11-02T09:59:10.478Z,12.70
2018-11-02T10:01:39.682Z,12.40
2018-11-02T10:04:08.840Z,14.10
2018-11-02T10:06:38.029Z,14.67
2018-11-02T10:09:10.180Z,12.60
2018-11-02T10:11:39.418Z,13.57
2018-11-02T10:14:09.420Z,12.70
2018-11-02T10:16:38.626Z,14.23
2018-11-02T10:19:08.333Z,13.20
2018-11-02T10:21:37.505Z,13.07
2018-11-02T10:24:07.233Z,12.20
2018-11-02T10:26:36.562Z,12.90
2018-11-02T10:29:06.311Z,13.50
2018-11-02T10:31:35.618Z,13.13
2018-11-02T10:34:04.890Z,12.73
2018-11-02T10:36:35.010Z,13.10
2018-11-02T10:39:05.517Z,13.68
2018-11-02T10:41:37.781Z,13.73
2018-11-02T10:44:07.084Z,14.00
2018-11-02T10:46:36.418Z,11.60
2018-11-02T10:49:05.921Z,13.80
2018-11-02T10:51:35.160Z,14.20
2018-11-02T10:54:04.455Z,13.50
2018-11-02T10:56:33.590Z,12.90
2018-11-02T10:59:02.770Z,12.57
2018-11-02T11:01:37.162Z,13.40
2018-11-02T11:04:07.299Z,13.10
2018-11-02T11:06:36.792Z,13.47
2018-11-02T11:09:09.449Z,14.37
2018-11-02T11:11:38.821Z,14.50
2018-11-02T11:14:08.142Z,12.90
2018-11-02T11:16:37.362Z,13.53
2018-11-02T11:19:07.819Z,13.80
2018-11-02T11:21:37.560Z,13.80
2018-11-02T11:24:06.939Z,12.60
2018-11-02T11:26:36.526Z,12.90
2018-11-02T11:29:06.059Z,10.60
2018-11-02T11:31:35.539Z,12.50
2018-11-02T11:34:05.544Z,11.60
2018-11-02T11:36:34.695Z,12.10
2018-11-02T11:39:05.200Z,12.70
2018-11-02T11:41:35.180Z,11.80
2018-11-02T11:44:04.365Z,12.60
2018-11-02T11:46:33.549Z,12.30
2018-11-02T11:49:02.867Z,13.80
2018-11-02T11:51:31.950Z,12.33
2018-11-02T11:54:01.200Z,13.03
2018-11-02T11:56:30.361Z,13.97
2018-11-02T11:58:59.629Z,12.43
2018-11-02T12:01:28.816Z,13.23
2018-11-02T12:03:58.105Z,13.83
2018-11-02T12:06:27.295Z,14.23
2018-11-02T12:08:56.512Z,12.37
2018-11-02T12:11:25.698Z,12.85
2018-11-02T12:13:55.082Z,12.67
2018-11-02T12:16:24.322Z,12.73
2018-11-02T12:18:53.579Z,11.57
2018-11-02T12:21:22.813Z,12.10
2018-11-02T12:23:52.053Z,11.00
2018-11-02T12:26:21.360Z,12.83
2018-11-02T12:28:50.643Z,11.83
2018-11-02T12:31:19.721Z,11.95
2018-11-02T12:33:48.916Z,12.23
2018-11-02T12:36:18.081Z,12.90
2018-11-02T12:38:47.206Z,11.40
2018-11-02T12:41:16.388Z,11.93
2018-11-02T12:43:45.619Z,11.80
2018-11-02T12:46:14.803Z,12.33
2018-11-02T12:48:44.150Z,12.93
2018-11-02T12:51:13.197Z,11.63
2018-11-02T12:53:42.402Z,12.10
2018-11-02T12:56:11.603Z,12.50
2018-11-02T12:58:40.737Z,12.30
2018-11-02T13:01:09.949Z,12.17
2018-11-02T13:03:39.155Z,10.63
2018-11-02T13:06:08.380Z,12.03
2018-11-02T13:08:37.584Z,11.07
2018-11-02T13:11:06.833Z,12.80
2018-11-02T13:13:35.954Z,12.90
2018-11-02T13:16:05.324Z,12.97
2018-11-02T13:18:34.420Z,13.25
2018-11-02T13:21:03.564Z,13.47
2018-11-02T13:23:32.695Z,13.60
2018-11-02T13:26:01.991Z,13.00
2018-11-02T13:28:31.004Z,11.78
2018-11-02T13:31:01.174Z,13.30
2018-11-02T13:33:30.225Z,13.33
2018-11-02T13:35:59.389Z,13.50
2018-11-02T13:38:28.552Z,12.37
2018-11-02T13:40:58.288Z,12.37
2018-11-02T13:43:27.581Z,13.77
2018-11-02T13:45:56.686Z,12.87
2018-11-02T13:48:25.818Z,13.63
2018-11-02T13:50:54.981Z,13.47
2018-11-02T13:53:24.209Z,13.28
2018-11-02T13:55:53.362Z,13.50
2018-11-02T13:58:22.498Z,13.10
2018-11-02T14:00:51.804Z,12.93
2018-11-02T14:03:20.930Z,12.10
2018-11-02T14:05:50.209Z,13.60
2018-11-02T14:08:19.367Z,12.20
2018-11-02T14:10:48.534Z,12.37
2018-11-02T14:13:17.696Z,12.55
2018-11-02T14:15:46.887Z,12.80
2018-11-02T14:18:16.104Z,12.53
2018-11-02T14:20:45.282Z,12.20
2018-11-02T14:23:14.446Z,13.30
2018-11-02T14:25:43.568Z,13.37
2018-11-02T14:28:12.719Z,14.17
2018-11-02T14:30:41.851Z,12.30
2018-11-02T14:33:11.668Z,13.55
2018-11-02T14:35:40.810Z,14.28
2018-11-02T14:38:09.958Z,14.40
2018-11-02T14:40:39.270Z,14.93
2018-11-02T14:43:08.713Z,13.80
2018-11-02T14:45:37.948Z,15.17
2018-11-02T14:48:07.174Z,13.77
2018-11-02T14:50:36.314Z,13.93
2018-11-02T14:53:05.974Z,13.20
2018-11-02T14:55:35.181Z,14.00
2018-11-02T14:58:04.710Z,12.37
2018-11-02T15:00:33.934Z,14.03
2018-11-02T15:03:03.103Z,12.37
2018-11-02T15:05:32.270Z,14.17
2018-11-02T15:08:01.446Z,12.40
2018-11-02T15:10:30.632Z,13.10
2018-11-02T15:12:59.874Z,12.90
2018-11-02T15:15:29.092Z,12.95
2018-11-02T15:17:58.311Z,13.67
2018-11-02T15:20:27.509Z,12.97
2018-11-02T15:22:56.670Z,12.77
2018-11-02T15:25:25.836Z,13.75
2018-11-02T15:27:55.137Z,14.17
2018-11-02T15:30:24.306Z,13.07
2018-11-02T15:32:53.469Z,12.50
2018-11-02T15:35:22.611Z,12.40
2018-11-02T15:37:51.843Z,18.23
2018-11-02T15:40:21.012Z,18.60
2018-11-02T15:42:50.200Z,19.70
2018-11-02T15:45:19.385Z,17.75
2018-11-02T15:47:48.558Z,17.10
2018-11-02T15:50:17.893Z,15.37
2018-11-02T15:52:47.109Z,14.70
2018-11-02T15:55:16.547Z,13.30
2018-11-02T15:57:45.730Z,14.83
2018-11-02T16:00:17.441Z,15.70
2018-11-02T16:02:47.908Z,14.07
2018-11-02T16:05:17.148Z,13.43
2018-11-02T16:07:46.352Z,14.70
2018-11-02T16:10:15.558Z,15.40
2018-11-02T16:12:45.078Z,14.83
2018-11-02T16:15:14.350Z,14.40
2018-11-02T16:17:43.505Z,14.17
2018-11-02T16:20:14.221Z,14.10
2018-11-02T16:22:43.910Z,11.30
2018-11-02T16:25:13.517Z,12.60
2018-11-02T16:27:42.772Z,12.00
2018-11-02T16:30:12.459Z,18.60
2018-11-02T16:32:41.581Z,16.20
2018-11-02T16:35:11.607Z,17.17
2018-11-02T16:37:40.800Z,16.73
2018-11-02T16:40:14.107Z,17.07
2018-11-02T16:42:43.968Z,19.77
2018-11-02T16:45:14.226Z,18.98
2018-11-02T16:47:44.227Z,18.50
2018-11-02T16:50:14.648Z,18.47
2018-11-02T16:52:44.216Z,16.10
2018-11-02T16:55:13.573Z,15.85
2018-11-02T16:57:42.861Z,14.43
2018-11-02T17:00:14.676Z,17.27
2018-11-02T17:02:44.817Z,21.73
2018-11-02T17:05:14.009Z,23.10
2018-11-02T17:07:43.824Z,21.25
2018-11-02T17:10:14.158Z,18.57
2018-11-02T17:12:43.840Z,20.73
2018-11-02T17:15:13.669Z,19.30
2018-11-02T17:17:42.913Z,18.17
2018-11-02T17:20:14.634Z,20.13
2018-11-02T17:22:43.858Z,22.33
2018-11-02T17:25:13.392Z,20.70
2018-11-02T17:27:42.590Z,19.10
2018-11-02T17:30:14.705Z,23.35
2018-11-02T17:32:43.953Z,23.00
2018-11-02T17:35:13.189Z,24.63
2018-11-02T17:37:42.453Z,24.30
2018-11-02T17:40:12.844Z,26.10
2018-11-02T17:42:42.493Z,23.70
2018-11-02T17:45:11.861Z,25.10
2018-11-02T17:47:41.961Z,25.90
2018-11-02T17:50:12.499Z,86.70
2018-11-02T17:52:41.748Z,39.60
2018-11-02T17:55:10.881Z,28.70
2018-11-02T17:57:40.283Z,26.03
2018-11-02T18:00:11.352Z,27.43
2018-11-02T18:02:40.588Z,28.37
2018-11-02T18:05:10.621Z,26.77
2018-11-02T18:07:39.809Z,27.93
2018-11-02T18:10:11.133Z,27.15
2018-11-02T18:12:40.665Z,26.20
2018-11-02T18:15:10.792Z,27.40
2018-11-02T18:17:39.962Z,25.43
2018-11-02T18:20:11.345Z,25.15
2018-11-02T18:22:40.514Z,25.20
2018-11-02T18:25:10.214Z,26.00
2018-11-02T18:27:39.565Z,25.37
2018-11-02T18:30:09.978Z,27.60
2018-11-02T18:32:39.169Z,27.07
2018-11-02T18:35:09.125Z,25.00
2018-11-02T18:37:38.197Z,20.92
2018-11-02T18:40:10.168Z,24.53
2018-11-02T18:42:39.345Z,26.07
2018-11-02T18:45:11.009Z,24.25
2018-11-02T18:47:45.240Z,25.97
2018-11-02T18:50:16.188Z,23.80
2018-11-02T18:52:45.947Z,26.83
2018-11-02T18:55:15.323Z,28.27
2018-11-02T18:57:44.560Z,26.23
2018-11-02T19:00:13.975Z,25.50
2018-11-02T19:02:43.236Z,24.17
2018-11-02T19:05:18.208Z,26.93
2018-11-02T19:07:47.356Z,24.40
2018-11-02T19:10:16.552Z,40.90
2018-11-02T19:12:45.758Z,29.07
2018-11-02T19:15:16.237Z,27.27
2018-11-02T19:17:45.462Z,22.33
2018-11-02T19:20:15.161Z,24.27
2018-11-02T19:22:44.448Z,26.60
2018-11-02T19:25:14.745Z,26.62
2018-11-02T19:27:44.775Z,26.43
2018-11-02T19:30:14.682Z,26.20
2018-11-02T19:32:44.133Z,27.90
2018-11-02T19:35:14.252Z,28.00
2018-11-02T19:37:43.765Z,30.87
2018-11-02T19:40:14.162Z,28.37
2018-11-02T19:42:43.545Z,27.20
2018-11-02T19:45:13.167Z,27.60
2018-11-02T19:47:47.589Z,28.57
2018-11-02T19:50:17.784Z,29.43
2018-11-02T19:52:46.983Z,28.47
2018-11-02T19:55:16.301Z,31.73
2018-11-02T19:57:45.621Z,28.70
2018-11-02T20:00:16.026Z,28.50
2018-11-02T20:02:45.208Z,28.27
2018-11-02T20:05:16.296Z,30.40
2018-11-02T20:07:45.595Z,28.27
2018-11-02T20:10:15.689Z,26.80
2018-11-02T20:12:45.537Z,26.87
2018-11-02T20:15:15.410Z,27.60
2018-11-02T20:17:44.660Z,28.40
2018-11-02T20:20:14.932Z,28.70
2018-11-02T20:22:44.109Z,26.30
2018-11-02T20:25:16.557Z,29.30
2018-11-02T20:27:45.782Z,27.27
2018-11-02T20:30:16.655Z,29.20
2018-11-02T20:32:45.949Z,28.97
2018-11-02T20:35:15.703Z,27.23
2018-11-02T20:37:45.000Z,27.95
2018-11-02T20:40:16.609Z,29.07
2018-11-02T20:42:46.079Z,28.67
2018-11-02T20:45:15.857Z,28.73
2018-11-02T20:47:47.158Z,28.60
2018-11-02T20:50:16.668Z,27.40
2018-11-02T20:52:46.169Z,27.40
2018-11-02T20:55:15.777Z,28.33
2018-11-02T20:57:44.947Z,29.73
2018-11-02T21:00:15.516Z,30.63
2018-11-02T21:02:45.171Z,29.70
2018-11-02T21:05:16.614Z,30.17
2018-11-02T21:07:46.446Z,29.10
2018-11-02T21:10:16.710Z,28.20
2018-11-02T21:12:45.933Z,29.03
2018-11-02T21:15:17.369Z,30.27
2018-11-02T21:17:46.507Z,29.60
2018-11-02T21:20:17.121Z,30.87
2018-11-02T21:22:46.293Z,31.30
2018-11-02T21:25:15.802Z,30.90
2018-11-02T21:27:45.833Z,31.37
2018-11-02T21:30:18.983Z,30.63
2018-11-02T21:32:48.711Z,32.70
2018-11-02T21:35:18.464Z,30.43
2018-11-02T21:37:48.362Z,28.90
2018-11-02T21:40:19.006Z,29.03
2018-11-02T21:42:48.249Z,32.00
2018-11-02T21:45:18.908Z,29.82
2018-11-02T21:47:48.146Z,31.83
2018-11-02T21:50:17.746Z,30.23
2018-11-02T21:52:46.945Z,31.13
2018-11-02T21:55:16.129Z,31.48
2018-11-02T21:57:45.313Z,31.63
2018-11-02T22:00:17.893Z,30.87
2018-11-02T22:02:47.478Z,29.40
2018-11-02T22:05:16.685Z,29.42
2018-11-02T22:07:47.329Z,31.27
2018-11-02T22:10:16.928Z,28.93
2018-11-02T22:12:46.148Z,27.67
2018-11-02T22:15:15.313Z,27.87
2018-11-02T22:17:44.538Z,27.90
2018-11-02T22:20:14.938Z,28.47
2018-11-02T22:22:44.225Z,27.77
2018-11-02T22:25:14.264Z,28.80
2018-11-02T22:27:43.409Z,28.00
2018-11-02T22:30:15.013Z,30.13
2018-11-02T22:32:44.221Z,27.67
2018-11-02T22:35:14.027Z,30.77
2018-11-02T22:37:43.517Z,30.87
2018-11-02T22:40:13.316Z,31.80
2018-11-02T22:42:43.060Z,28.97
2018-11-02T22:45:13.511Z,31.10
2018-11-02T22:47:46.884Z,29.73
2018-11-02T22:50:16.078Z,30.27
2018-11-02T22:52:45.240Z,31.87
2018-11-02T22:55:14.474Z,30.33
2018-11-02T22:57:43.657Z,31.30
2018-11-02T23:00:16.357Z,30.63
2018-11-02T23:02:46.589Z,31.97
2018-11-02T23:05:15.782Z,32.80
2018-11-02T23:07:45.257Z,31.73
2018-11-02T23:10:14.546Z,29.23
2018-11-02T23:12:43.734Z,30.10
2018-11-02T23:15:13.269Z,31.50
2018-11-02T23:17:42.440Z,31.67
2018-11-02T23:20:13.534Z,31.97
2018-11-02T23:22:42.814Z,31.40
2018-11-02T23:25:12.531Z,31.80
2018-11-02T23:27:43.159Z,34.17
2018-11-02T23:30:12.481Z,34.30
2018-11-02T23:32:41.741Z,35.47
2018-11-02T23:35:10.990Z,33.50
2018-11-02T23:37:40.147Z,34.60
2018-11-02T23:40:10.384Z,37.80
2018-11-02T23:42:39.614Z,36.13
2018-11-02T23:45:10.078Z,34.07
2018-11-02T23:47:39.421Z,36.53
2018-11-02T23:50:09.732Z,35.30
2018-11-02T23:52:39.754Z,38.40
2018-11-02T23:55:09.256Z,38.63
2018-11-02T23:57:38.755Z,37.87
